sensor_id;sensor_type;location;lat;lon;timestamp;pressure;altitude;pressure_sealevel;temperature;humidity
46211;BME280;52144;48.040;-1.594;2023-04-25T00:01:12;100921.75;;;16.39;70.95
46211;BME280;52144;48.040;-1.594;2023-04-25T00:03:40;100922.56;;;16.27;71.33
46211;BME280;52144;48.040;-1.594;2023-04-25T00:06:08;100921.91;;;16.51;72.08
46211;BME280;52144;48.040;-1.594;2023-04-25T00:08:36;100925.66;;;16.21;70.62
46211;BME280;52144;48.040;-1.594;2023-04-25T00:11:04;100928.88;;;16.53;71.91
46211;BME280;52144;48.040;-1.594;2023-04-25T00:13:33;100924.09;;;16.71;69.86
46211;BME280;52144;48.040;-1.594;2023-04-25T00:16:01;100920.63;;;16.29;65.76
46211;BME280;52144;48.040;-1.594;2023-04-25T00:18:29;100916.75;;;16.20;67.04
46211;BME280;52144;48.040;-1.594;2023-04-25T00:20:59;100916.47;;;16.11;66.09
46211;BME280;52144;48.040;-1.594;2023-04-25T00:23:27;100919.75;;;16.01;68.52
46211;BME280;52144;48.040;-1.594;2023-04-25T00:25:55;100919.13;;;15.98;65.29
46211;BME280;52144;48.040;-1.594;2023-04-25T00:28:22;100913.38;;;16.17;67.06
46211;BME280;52144;48.040;-1.594;2023-04-25T00:30:52;100917.94;;;16.29;67.09
46211;BME280;52144;48.040;-1.594;2023-04-25T00:33:20;100909.75;;;16.03;65.98
46211;BME280;52144;48.040;-1.594;2023-04-25T00:35:47;100909.22;;;15.98;66.24
46211;BME280;52144;48.040;-1.594;2023-04-25T00:38:15;100905.69;;;15.98;65.38
46211;BME280;52144;48.040;-1.594;2023-04-25T00:40:43;100904.84;;;15.83;65.11
46211;BME280;52144;48.040;-1.594;2023-04-25T00:43:11;100910.25;;;15.40;64.94
46211;BME280;52144;48.040;-1.594;2023-04-25T00:45:39;100909.56;;;15.51;68.48
46211;BME280;52144;48.040;-1.594;2023-04-25T00:48:08;100909.44;;;15.81;68.85
46211;BME280;52144;48.040;-1.594;2023-04-25T00:50:36;100906.50;;;16.13;68.81
46211;BME280;52144;48.040;-1.594;2023-04-25T00:53:04;100905.38;;;16.02;64.36
46211;BME280;52144;48.040;-1.594;2023-04-25T00:55:32;100908.41;;;15.83;65.54
46211;BME280;52144;48.040;-1.594;2023-04-25T00:58:01;100914.81;;;15.67;67.18
46211;BME280;52144;48.040;-1.594;2023-04-25T01:00:29;100908.13;;;15.74;65.89
46211;BME280;52144;48.040;-1.594;2023-04-25T01:02:56;100912.63;;;15.88;66.17
46211;BME280;52144;48.040;-1.594;2023-04-25T01:05:26;100910.19;;;15.69;66.54
46211;BME280;52144;48.040;-1.594;2023-04-25T01:07:54;100908.78;;;15.34;66.27
46211;BME280;52144;48.040;-1.594;2023-04-25T01:10:22;100908.31;;;15.42;67.19
46211;BME280;52144;48.040;-1.594;2023-04-25T01:12:50;100917.13;;;15.44;65.44
46211;BME280;52144;48.040;-1.594;2023-04-25T01:15:18;100911.97;;;15.41;65.18
46211;BME280;52144;48.040;-1.594;2023-04-25T01:17:45;100917.50;;;15.52;66.19
46211;BME280;52144;48.040;-1.594;2023-04-25T01:20:16;100906.66;;;15.82;67.66
46211;BME280;52144;48.040;-1.594;2023-04-25T01:22:45;100910.97;;;15.85;66.25
46211;BME280;52144;48.040;-1.594;2023-04-25T01:25:13;100915.44;;;15.99;65.39
46211;BME280;52144;48.040;-1.594;2023-04-25T01:27:41;100912.00;;;15.97;68.34
46211;BME280;52144;48.040;-1.594;2023-04-25T01:30:09;100911.56;;;15.90;66.97
46211;BME280;52144;48.040;-1.594;2023-04-25T01:32:37;100921.50;;;16.02;65.14
46211;BME280;52144;48.040;-1.594;2023-04-25T01:35:06;100912.88;;;15.69;63.41
46211;BME280;52144;48.040;-1.594;2023-04-25T01:37:36;100906.38;;;15.58;64.76
46211;BME280;52144;48.040;-1.594;2023-04-25T01:40:07;100902.16;;;15.54;64.69
46211;BME280;52144;48.040;-1.594;2023-04-25T01:42:37;100894.72;;;15.31;65.34
46211;BME280;52144;48.040;-1.594;2023-04-25T01:45:06;100893.19;;;15.27;65.23
46211;BME280;52144;48.040;-1.594;2023-04-25T01:47:34;100891.44;;;15.40;66.43
46211;BME280;52144;48.040;-1.594;2023-04-25T01:50:03;100896.09;;;15.65;68.12
46211;BME280;52144;48.040;-1.594;2023-04-25T01:52:31;100889.66;;;15.96;68.54
46211;BME280;52144;48.040;-1.594;2023-04-25T01:55:01;100891.88;;;15.90;66.77
46211;BME280;52144;48.040;-1.594;2023-04-25T01:57:30;100893.28;;;15.95;65.07
46211;BME280;52144;48.040;-1.594;2023-04-25T02:00:00;100888.00;;;15.38;63.13
46211;BME280;52144;48.040;-1.594;2023-04-25T02:02:28;100901.41;;;15.38;65.70
46211;BME280;52144;48.040;-1.594;2023-04-25T02:04:56;100901.25;;;15.27;64.38
46211;BME280;52144;48.040;-1.594;2023-04-25T02:07:25;100902.56;;;14.91;63.87
46211;BME280;52144;48.040;-1.594;2023-04-25T02:09:53;100900.44;;;14.96;66.26
46211;BME280;52144;48.040;-1.594;2023-04-25T02:12:21;100898.34;;;15.30;66.83
46211;BME280;52144;48.040;-1.594;2023-04-25T02:14:50;100905.84;;;15.10;65.03
46211;BME280;52144;48.040;-1.594;2023-04-25T02:17:18;100908.63;;;15.09;64.99
46211;BME280;52144;48.040;-1.594;2023-04-25T02:19:45;100909.00;;;15.31;67.20
46211;BME280;52144;48.040;-1.594;2023-04-25T02:22:13;100906.31;;;15.45;66.20
46211;BME280;52144;48.040;-1.594;2023-04-25T02:24:41;100910.03;;;15.00;63.96
46211;BME280;52144;48.040;-1.594;2023-04-25T02:27:09;100900.75;;;15.20;68.09
46211;BME280;52144;48.040;-1.594;2023-04-25T02:29:36;100913.22;;;15.07;65.53
46211;BME280;52144;48.040;-1.594;2023-04-25T02:32:06;100908.78;;;15.34;67.66
46211;BME280;52144;48.040;-1.594;2023-04-25T02:34:33;100903.88;;;14.98;63.23
46211;BME280;52144;48.040;-1.594;2023-04-25T02:37:01;100910.63;;;15.05;65.32
46211;BME280;52144;48.040;-1.594;2023-04-25T02:39:29;100919.47;;;14.77;65.82
46211;BME280;52144;48.040;-1.594;2023-04-25T02:41:57;100920.06;;;14.68;66.06
46211;BME280;52144;48.040;-1.594;2023-04-25T02:44:24;100925.91;;;14.74;66.42
46211;BME280;52144;48.040;-1.594;2023-04-25T02:46:52;100916.94;;;15.04;65.46
46211;BME280;52144;48.040;-1.594;2023-04-25T02:49:21;100909.47;;;15.23;66.25
46211;BME280;52144;48.040;-1.594;2023-04-25T02:51:49;100913.41;;;15.18;64.38
46211;BME280;52144;48.040;-1.594;2023-04-25T02:54:17;100924.94;;;14.75;66.49
46211;BME280;52144;48.040;-1.594;2023-04-25T02:56:44;100926.47;;;14.79;65.25
46211;BME280;52144;48.040;-1.594;2023-04-25T02:59:12;100924.84;;;14.77;66.60
46211;BME280;52144;48.040;-1.594;2023-04-25T03:01:40;100926.44;;;14.65;66.47
46211;BME280;52144;48.040;-1.594;2023-04-25T03:04:07;100927.53;;;14.77;66.13
46211;BME280;52144;48.040;-1.594;2023-04-25T03:06:36;100922.25;;;14.75;65.52
46211;BME280;52144;48.040;-1.594;2023-04-25T03:09:04;100925.41;;;14.52;64.76
46211;BME280;52144;48.040;-1.594;2023-04-25T03:11:32;100921.88;;;14.51;66.64
46211;BME280;52144;48.040;-1.594;2023-04-25T03:14:00;100913.38;;;14.89;67.32
46211;BME280;52144;48.040;-1.594;2023-04-25T03:16:28;100918.28;;;15.11;66.75
46211;BME280;52144;48.040;-1.594;2023-04-25T03:18:56;100921.19;;;15.22;66.77
46211;BME280;52144;48.040;-1.594;2023-04-25T03:21:23;100926.72;;;15.48;67.01
46211;BME280;52144;48.040;-1.594;2023-04-25T03:23:53;100928.25;;;15.52;66.27
46211;BME280;52144;48.040;-1.594;2023-04-25T03:26:20;100919.34;;;15.52;65.74
46211;BME280;52144;48.040;-1.594;2023-04-25T03:28:48;100913.91;;;15.39;66.38
46211;BME280;52144;48.040;-1.594;2023-04-25T03:31:16;100907.78;;;15.22;64.85
46211;BME280;52144;48.040;-1.594;2023-04-25T03:33:44;100921.94;;;15.10;66.20
46211;BME280;52144;48.040;-1.594;2023-04-25T03:36:11;100921.44;;;15.03;65.88
46211;BME280;52144;48.040;-1.594;2023-04-25T03:38:39;100929.94;;;14.96;66.12
46211;BME280;52144;48.040;-1.594;2023-04-25T03:41:09;100930.19;;;15.21;67.73
46211;BME280;52144;48.040;-1.594;2023-04-25T03:43:37;100937.28;;;15.22;65.67
46211;BME280;52144;48.040;-1.594;2023-04-25T03:46:05;100936.31;;;15.09;66.04
46211;BME280;52144;48.040;-1.594;2023-04-25T03:48:32;100941.44;;;14.98;64.30
46211;BME280;52144;48.040;-1.594;2023-04-25T03:51:00;100936.84;;;15.00;67.34
46211;BME280;52144;48.040;-1.594;2023-04-25T03:53:28;100943.19;;;14.99;68.00
46211;BME280;52144;48.040;-1.594;2023-04-25T03:55:56;100945.41;;;14.92;66.55
46211;BME280;52144;48.040;-1.594;2023-04-25T03:58:25;100945.84;;;14.84;65.25
46211;BME280;52144;48.040;-1.594;2023-04-25T04:00:53;100945.91;;;15.28;67.38
46211;BME280;52144;48.040;-1.594;2023-04-25T04:03:20;100949.50;;;14.98;66.17
46211;BME280;52144;48.040;-1.594;2023-04-25T04:05:49;100948.28;;;15.03;67.35
46211;BME280;52144;48.040;-1.594;2023-04-25T04:08:17;100944.91;;;15.00;67.01
46211;BME280;52144;48.040;-1.594;2023-04-25T04:10:44;100952.94;;;15.00;65.90
46211;BME280;52144;48.040;-1.594;2023-04-25T04:13:12;100945.63;;;14.73;67.78
46211;BME280;52144;48.040;-1.594;2023-04-25T04:15:41;100954.22;;;14.64;67.75
46211;BME280;52144;48.040;-1.594;2023-04-25T04:18:09;100960.00;;;14.72;67.78
46211;BME280;52144;48.040;-1.594;2023-04-25T04:20:37;100960.22;;;14.98;66.93
46211;BME280;52144;48.040;-1.594;2023-04-25T04:23:05;100962.22;;;14.80;66.60
46211;BME280;52144;48.040;-1.594;2023-04-25T04:25:32;100963.81;;;14.52;66.88
46211;BME280;52144;48.040;-1.594;2023-04-25T04:28:00;100960.19;;;14.83;67.66
46211;BME280;52144;48.040;-1.594;2023-04-25T04:30:28;100959.38;;;14.97;65.50
46211;BME280;52144;48.040;-1.594;2023-04-25T04:32:59;100968.22;;;14.69;66.79
46211;BME280;52144;48.040;-1.594;2023-04-25T04:35:27;100973.06;;;14.93;66.92
46211;BME280;52144;48.040;-1.594;2023-04-25T04:37:55;100965.16;;;14.75;67.07
46211;BME280;52144;48.040;-1.594;2023-04-25T04:40:22;100972.75;;;14.83;66.45
46211;BME280;52144;48.040;-1.594;2023-04-25T04:42:51;100971.06;;;14.82;66.88
46211;BME280;52144;48.040;-1.594;2023-04-25T04:45:22;100961.59;;;15.05;64.75
46211;BME280;52144;48.040;-1.594;2023-04-25T04:47:50;100960.97;;;14.85;65.55
46211;BME280;52144;48.040;-1.594;2023-04-25T04:50:20;100967.47;;;15.12;66.77
46211;BME280;52144;48.040;-1.594;2023-04-25T04:52:48;100970.06;;;15.42;65.80
46211;BME280;52144;48.040;-1.594;2023-04-25T04:55:16;100968.91;;;15.32;64.42
46211;BME280;52144;48.040;-1.594;2023-04-25T04:57:44;100966.69;;;15.24;65.00
46211;BME280;52144;48.040;-1.594;2023-04-25T05:00:12;100974.69;;;15.40;64.56
46211;BME280;52144;48.040;-1.594;2023-04-25T05:02:42;100980.69;;;15.15;66.62
46211;BME280;52144;48.040;-1.594;2023-04-25T05:05:10;100977.16;;;15.14;64.23
46211;BME280;52144;48.040;-1.594;2023-04-25T05:07:39;100991.25;;;14.88;65.51
46211;BME280;52144;48.040;-1.594;2023-04-25T05:10:08;100981.66;;;14.53;66.90
46211;BME280;52144;48.040;-1.594;2023-04-25T05:12:35;100984.59;;;14.64;66.38
46211;BME280;52144;48.040;-1.594;2023-04-25T05:15:04;100993.31;;;14.52;67.26
46211;BME280;52144;48.040;-1.594;2023-04-25T05:17:32;100989.06;;;14.48;67.87
46211;BME280;52144;48.040;-1.594;2023-04-25T05:20:00;100991.97;;;14.75;66.10
46211;BME280;52144;48.040;-1.594;2023-04-25T05:22:28;101004.13;;;14.51;67.13
46211;BME280;52144;48.040;-1.594;2023-04-25T05:24:57;101007.34;;;14.88;67.38
46211;BME280;52144;48.040;-1.594;2023-04-25T05:27:24;101012.25;;;14.65;66.64
46211;BME280;52144;48.040;-1.594;2023-04-25T05:29:52;101006.16;;;14.77;69.67
46211;BME280;52144;48.040;-1.594;2023-04-25T05:32:20;101013.03;;;14.67;69.12
46211;BME280;52144;48.040;-1.594;2023-04-25T05:34:48;101011.50;;;14.93;67.00
46211;BME280;52144;48.040;-1.594;2023-04-25T05:37:16;101011.44;;;15.09;66.62
46211;BME280;52144;48.040;-1.594;2023-04-25T05:39:44;101021.19;;;15.40;66.62
46211;BME280;52144;48.040;-1.594;2023-04-25T05:42:13;101027.63;;;15.08;64.78
46211;BME280;52144;48.040;-1.594;2023-04-25T05:44:41;101028.47;;;15.38;66.64
46211;BME280;52144;48.040;-1.594;2023-04-25T05:47:09;101027.84;;;15.63;65.27
46211;BME280;52144;48.040;-1.594;2023-04-25T05:49:36;101021.47;;;15.50;63.94
46211;BME280;52144;48.040;-1.594;2023-04-25T05:52:04;101028.75;;;15.34;63.73
46211;BME280;52144;48.040;-1.594;2023-04-25T05:54:32;101029.94;;;15.14;64.09
46211;BME280;52144;48.040;-1.594;2023-04-25T05:57:00;101030.59;;;15.33;63.37
46211;BME280;52144;48.040;-1.594;2023-04-25T05:59:30;101027.06;;;15.47;63.66
46211;BME280;52144;48.040;-1.594;2023-04-25T06:01:58;101021.03;;;15.58;63.74
46211;BME280;52144;48.040;-1.594;2023-04-25T06:04:27;101028.22;;;15.72;63.34
46211;BME280;52144;48.040;-1.594;2023-04-25T06:06:55;101022.75;;;15.73;63.18
46211;BME280;52144;48.040;-1.594;2023-04-25T06:09:23;101031.03;;;15.84;62.15
46211;BME280;52144;48.040;-1.594;2023-04-25T06:11:51;101036.69;;;15.80;65.07
46211;BME280;52144;48.040;-1.594;2023-04-25T06:14:18;101037.53;;;15.66;63.23
46211;BME280;52144;48.040;-1.594;2023-04-25T06:16:47;101028.81;;;15.77;63.41
46211;BME280;52144;48.040;-1.594;2023-04-25T06:19:15;101029.19;;;15.99;65.01
46211;BME280;52144;48.040;-1.594;2023-04-25T06:21:44;101031.44;;;16.20;64.20
46211;BME280;52144;48.040;-1.594;2023-04-25T06:24:11;101042.56;;;16.42;64.26
46211;BME280;52144;48.040;-1.594;2023-04-25T06:26:39;101037.19;;;16.42;63.83
46211;BME280;52144;48.040;-1.594;2023-04-25T06:29:07;101050.50;;;16.44;63.91
46211;BME280;52144;48.040;-1.594;2023-04-25T06:31:35;101050.94;;;16.65;63.72
46211;BME280;52144;48.040;-1.594;2023-04-25T06:34:04;101045.00;;;16.60;62.77
46211;BME280;52144;48.040;-1.594;2023-04-25T06:36:32;101046.38;;;16.53;61.36
46211;BME280;52144;48.040;-1.594;2023-04-25T06:39:00;101048.66;;;16.17;61.13
46211;BME280;52144;48.040;-1.594;2023-04-25T06:41:27;101051.47;;;15.87;62.60
46211;BME280;52144;48.040;-1.594;2023-04-25T06:43:55;101050.50;;;15.74;63.30
46211;BME280;52144;48.040;-1.594;2023-04-25T06:46:23;101046.28;;;15.84;64.31
46211;BME280;52144;48.040;-1.594;2023-04-25T06:48:51;101050.00;;;16.24;63.19
46211;BME280;52144;48.040;-1.594;2023-04-25T06:51:20;101052.28;;;16.31;63.40
46211;BME280;52144;48.040;-1.594;2023-04-25T06:53:50;101051.78;;;16.38;63.67
46211;BME280;52144;48.040;-1.594;2023-04-25T06:56:18;101055.03;;;16.43;64.26
46211;BME280;52144;48.040;-1.594;2023-04-25T06:58:45;101045.13;;;16.86;65.98
46211;BME280;52144;48.040;-1.594;2023-04-25T07:01:13;101043.72;;;17.33;64.29
46211;BME280;52144;48.040;-1.594;2023-04-25T07:03:41;101049.34;;;16.90;66.12
46211;BME280;52144;48.040;-1.594;2023-04-25T07:06:09;101046.81;;;17.14;66.20
46211;BME280;52144;48.040;-1.594;2023-04-25T07:08:38;101038.03;;;16.70;67.83
46211;BME280;52144;48.040;-1.594;2023-04-25T07:11:06;101043.25;;;17.13;68.52
46211;BME280;52144;48.040;-1.594;2023-04-25T07:13:33;101038.91;;;16.43;68.81
46211;BME280;52144;48.040;-1.594;2023-04-25T07:16:01;101051.84;;;16.51;71.21
46211;BME280;52144;48.040;-1.594;2023-04-25T07:18:29;101052.06;;;17.02;69.20
46211;BME280;52144;48.040;-1.594;2023-04-25T07:20:57;101055.66;;;16.20;71.13
46211;BME280;52144;48.040;-1.594;2023-04-25T07:23:25;101045.75;;;16.62;72.90
46211;BME280;52144;48.040;-1.594;2023-04-25T07:25:54;101052.06;;;16.75;73.00
46211;BME280;52144;48.040;-1.594;2023-04-25T07:28:22;101055.31;;;17.08;70.54
46211;BME280;52144;48.040;-1.594;2023-04-25T07:30:50;101058.53;;;17.00;73.18
46211;BME280;52144;48.040;-1.594;2023-04-25T07:33:17;101065.94;;;16.69;71.12
46211;BME280;52144;48.040;-1.594;2023-04-25T07:35:47;101060.03;;;17.04;71.38
46211;BME280;52144;48.040;-1.594;2023-04-25T07:38:14;101063.06;;;17.12;70.28
46211;BME280;52144;48.040;-1.594;2023-04-25T07:40:42;101066.16;;;16.52;70.45
46211;BME280;52144;48.040;-1.594;2023-04-25T07:43:11;101062.38;;;17.61;65.52
46211;BME280;52144;48.040;-1.594;2023-04-25T07:45:42;101063.09;;;17.25;68.45
46211;BME280;52144;48.040;-1.594;2023-04-25T07:48:10;101076.13;;;17.18;68.95
46211;BME280;52144;48.040;-1.594;2023-04-25T07:50:38;101076.78;;;17.22;69.07
46211;BME280;52144;48.040;-1.594;2023-04-25T07:53:06;101076.44;;;17.14;67.51
46211;BME280;52144;48.040;-1.594;2023-04-25T07:55:42;101077.91;;;17.05;70.67
46211;BME280;52144;48.040;-1.594;2023-04-25T07:58:12;101077.63;;;17.22;68.02
46211;BME280;52144;48.040;-1.594;2023-04-25T08:00:41;101089.94;;;16.99;68.10
46211;BME280;52144;48.040;-1.594;2023-04-25T08:03:09;101090.25;;;16.95;69.30
46211;BME280;52144;48.040;-1.594;2023-04-25T08:05:37;101098.69;;;17.03;66.96
46211;BME280;52144;48.040;-1.594;2023-04-25T08:08:05;101101.13;;;16.93;67.99
46211;BME280;52144;48.040;-1.594;2023-04-25T08:10:34;101106.56;;;17.72;66.72
46211;BME280;52144;48.040;-1.594;2023-04-25T08:13:01;101115.19;;;17.51;66.96
46211;BME280;52144;48.040;-1.594;2023-04-25T08:15:31;101115.94;;;17.66;64.56
46211;BME280;52144;48.040;-1.594;2023-04-25T08:17:59;101111.66;;;17.23;64.94
46211;BME280;52144;48.040;-1.594;2023-04-25T08:20:27;101122.78;;;17.32;61.92
46211;BME280;52144;48.040;-1.594;2023-04-25T08:22:54;101116.84;;;16.99;63.22
46211;BME280;52144;48.040;-1.594;2023-04-25T08:25:22;101125.72;;;17.54;63.20
46211;BME280;52144;48.040;-1.594;2023-04-25T08:27:50;101130.16;;;17.55;64.87
46211;BME280;52144;48.040;-1.594;2023-04-25T08:30:18;101132.56;;;17.73;63.83
46211;BME280;52144;48.040;-1.594;2023-04-25T08:32:48;101132.66;;;17.18;65.80
46211;BME280;52144;48.040;-1.594;2023-04-25T08:35:16;101139.50;;;17.37;64.44
46211;BME280;52144;48.040;-1.594;2023-04-25T08:37:44;101134.28;;;17.74;64.99
46211;BME280;52144;48.040;-1.594;2023-04-25T08:40:14;101131.72;;;18.11;63.60
46211;BME280;52144;48.040;-1.594;2023-04-25T08:42:42;101135.31;;;17.58;62.77
46211;BME280;52144;48.040;-1.594;2023-04-25T08:45:10;101136.66;;;17.78;64.02
46211;BME280;52144;48.040;-1.594;2023-04-25T08:47:39;101131.69;;;17.72;61.98
46211;BME280;52144;48.040;-1.594;2023-04-25T08:50:09;101137.06;;;17.19;63.41
46211;BME280;52144;48.040;-1.594;2023-04-25T08:52:39;101140.88;;;16.75;63.56
46211;BME280;52144;48.040;-1.594;2023-04-25T08:55:12;101141.22;;;16.98;63.94
46211;BME280;52144;48.040;-1.594;2023-04-25T08:57:41;101142.31;;;17.88;61.88
46211;BME280;52144;48.040;-1.594;2023-04-25T09:00:11;101139.50;;;18.02;60.98
46211;BME280;52144;48.040;-1.594;2023-04-25T09:02:39;101144.50;;;17.69;61.94
46211;BME280;52144;48.040;-1.594;2023-04-25T09:05:10;101143.41;;;17.58;60.07
46211;BME280;52144;48.040;-1.594;2023-04-25T09:07:40;101150.75;;;17.16;59.98
46211;BME280;52144;48.040;-1.594;2023-04-25T09:10:08;101147.66;;;17.75;60.39
46211;BME280;52144;48.040;-1.594;2023-04-25T09:12:36;101147.66;;;18.76;60.59
46211;BME280;52144;48.040;-1.594;2023-04-25T09:15:06;101155.44;;;18.31;61.08
46211;BME280;52144;48.040;-1.594;2023-04-25T09:17:34;101152.88;;;18.04;59.97
46211;BME280;52144;48.040;-1.594;2023-04-25T09:20:09;101154.28;;;17.84;60.25
46211;BME280;52144;48.040;-1.594;2023-04-25T09:22:38;101155.84;;;17.61;61.39
46211;BME280;52144;48.040;-1.594;2023-04-25T09:25:10;101157.81;;;18.36;62.28
46211;BME280;52144;48.040;-1.594;2023-04-25T09:27:49;101164.41;;;18.06;60.16
46211;BME280;52144;48.040;-1.594;2023-04-25T09:30:17;101158.69;;;18.11;61.67
46211;BME280;52144;48.040;-1.594;2023-04-25T09:32:45;101159.25;;;18.16;59.45
46211;BME280;52144;48.040;-1.594;2023-04-25T09:35:23;101153.16;;;17.74;59.51
46211;BME280;52144;48.040;-1.594;2023-04-25T09:37:51;101154.66;;;17.25;61.33
46211;BME280;52144;48.040;-1.594;2023-04-25T09:40:19;101156.59;;;17.76;60.38
46211;BME280;52144;48.040;-1.594;2023-04-25T09:42:46;101163.88;;;18.14;57.59
46211;BME280;52144;48.040;-1.594;2023-04-25T09:45:14;101161.34;;;18.49;58.88
46211;BME280;52144;48.040;-1.594;2023-04-25T09:47:42;101154.72;;;18.03;61.49
46211;BME280;52144;48.040;-1.594;2023-04-25T09:50:15;101161.28;;;18.38;59.79
46211;BME280;52144;48.040;-1.594;2023-04-25T09:52:43;101155.66;;;18.15;60.14
46211;BME280;52144;48.040;-1.594;2023-04-25T09:55:11;101155.19;;;17.70;59.81
46211;BME280;52144;48.040;-1.594;2023-04-25T09:57:40;101155.78;;;17.48;61.23
46211;BME280;52144;48.040;-1.594;2023-04-25T10:00:09;101158.75;;;17.18;62.06
46211;BME280;52144;48.040;-1.594;2023-04-25T10:02:42;101158.81;;;17.56;60.22
46211;BME280;52144;48.040;-1.594;2023-04-25T10:05:10;101158.25;;;18.42;59.51
46211;BME280;52144;48.040;-1.594;2023-04-25T10:07:40;101160.59;;;18.47;57.14
46211;BME280;52144;48.040;-1.594;2023-04-25T10:10:09;101155.44;;;18.44;55.30
46211;BME280;52144;48.040;-1.594;2023-04-25T10:12:40;101153.94;;;18.90;54.71
46211;BME280;52144;48.040;-1.594;2023-04-25T10:15:10;101150.84;;;19.67;54.27
46211;BME280;52144;48.040;-1.594;2023-04-25T10:17:39;101157.47;;;18.28;53.12
46211;BME280;52144;48.040;-1.594;2023-04-25T10:20:08;101157.66;;;19.48;54.69
46211;BME280;52144;48.040;-1.594;2023-04-25T10:22:41;101160.50;;;19.58;52.11
46211;BME280;52144;48.040;-1.594;2023-04-25T10:25:09;101157.34;;;20.44;53.79
46211;BME280;52144;48.040;-1.594;2023-04-25T10:27:38;101156.22;;;20.47;51.79
46211;BME280;52144;48.040;-1.594;2023-04-25T10:30:08;101158.56;;;19.95;52.61
46211;BME280;52144;48.040;-1.594;2023-04-25T10:32:39;101152.91;;;19.28;54.44
46211;BME280;52144;48.040;-1.594;2023-04-25T10:35:13;101148.63;;;20.75;51.63
46211;BME280;52144;48.040;-1.594;2023-04-25T10:40:29;101146.75;;;20.53;51.29
46211;BME280;52144;48.040;-1.594;2023-04-25T10:45:59;101140.59;;;20.51;49.79
46211;BME280;52144;48.040;-1.594;2023-04-25T10:48:28;101139.53;;;21.08;48.33
46211;BME280;52144;48.040;-1.594;2023-04-25T10:51:08;101129.09;;;20.92;48.61
46211;BME280;52144;48.040;-1.594;2023-04-25T10:53:36;101133.84;;;20.68;48.66
46211;BME280;52144;48.040;-1.594;2023-04-25T10:56:11;101133.41;;;21.59;49.26
46211;BME280;52144;48.040;-1.594;2023-04-25T10:58:43;101131.03;;;21.87;46.48
46211;BME280;52144;48.040;-1.594;2023-04-25T11:01:12;101144.06;;;20.08;48.82
46211;BME280;52144;48.040;-1.594;2023-04-25T11:03:41;101141.94;;;18.94;51.36
46211;BME280;52144;48.040;-1.594;2023-04-25T11:06:19;101142.84;;;20.68;52.18
46211;BME280;52144;48.040;-1.594;2023-04-25T11:08:50;101142.72;;;20.36;51.73
46211;BME280;52144;48.040;-1.594;2023-04-25T11:11:20;101135.69;;;19.99;51.78
46211;BME280;52144;48.040;-1.594;2023-04-25T11:13:48;101135.88;;;19.74;52.70
46211;BME280;52144;48.040;-1.594;2023-04-25T11:16:17;101131.25;;;20.55;51.90
46211;BME280;52144;48.040;-1.594;2023-04-25T11:18:53;101137.16;;;20.71;48.30
46211;BME280;52144;48.040;-1.594;2023-04-25T11:21:25;101143.88;;;20.88;50.40
46211;BME280;52144;48.040;-1.594;2023-04-25T11:23:56;101144.72;;;21.00;47.05
46211;BME280;52144;48.040;-1.594;2023-04-25T11:26:25;101138.06;;;21.04;49.66
46211;BME280;52144;48.040;-1.594;2023-04-25T11:28:57;101142.22;;;20.42;48.23
46211;BME280;52144;48.040;-1.594;2023-04-25T11:31:25;101151.81;;;20.23;49.57
46211;BME280;52144;48.040;-1.594;2023-04-25T11:33:53;101142.06;;;19.87;50.74
46211;BME280;52144;48.040;-1.594;2023-04-25T11:36:22;101143.06;;;19.97;49.46
46211;BME280;52144;48.040;-1.594;2023-04-25T11:38:50;101157.09;;;20.14;50.26
46211;BME280;52144;48.040;-1.594;2023-04-25T11:41:18;101153.69;;;20.68;47.90
46211;BME280;52144;48.040;-1.594;2023-04-25T11:43:48;101159.28;;;20.88;49.79
46211;BME280;52144;48.040;-1.594;2023-04-25T11:46:16;101157.31;;;21.87;46.68
46211;BME280;52144;48.040;-1.594;2023-04-25T11:48:45;101155.31;;;22.40;46.74
46211;BME280;52144;48.040;-1.594;2023-04-25T11:51:14;101150.34;;;22.46;46.57
46211;BME280;52144;48.040;-1.594;2023-04-25T11:53:44;101152.31;;;22.94;44.63
46211;BME280;52144;48.040;-1.594;2023-04-25T11:56:12;101138.84;;;22.32;44.35
46211;BME280;52144;48.040;-1.594;2023-04-25T11:59:03;101135.69;;;22.06;47.11
46211;BME280;52144;48.040;-1.594;2023-04-25T12:01:33;101135.22;;;21.70;44.61
46211;BME280;52144;48.040;-1.594;2023-04-25T12:04:12;101151.13;;;22.06;46.11
46211;BME280;52144;48.040;-1.594;2023-04-25T12:06:41;101144.44;;;21.14;44.56
46211;BME280;52144;48.040;-1.594;2023-04-25T12:09:10;101138.13;;;21.25;46.00
46211;BME280;52144;48.040;-1.594;2023-04-25T12:11:43;101135.66;;;21.22;46.47
46211;BME280;52144;48.040;-1.594;2023-04-25T12:14:21;101147.34;;;22.39;46.68
46211;BME280;52144;48.040;-1.594;2023-04-25T12:16:50;101148.06;;;22.20;46.01
46211;BME280;52144;48.040;-1.594;2023-04-25T12:19:19;101151.97;;;22.58;44.60
46211;BME280;52144;48.040;-1.594;2023-04-25T12:21:48;101150.97;;;23.19;43.51
46211;BME280;52144;48.040;-1.594;2023-04-25T12:24:24;101149.13;;;23.39;44.14
46211;BME280;52144;48.040;-1.594;2023-04-25T12:26:58;101147.94;;;23.71;43.51
46211;BME280;52144;48.040;-1.594;2023-04-25T12:29:29;101156.53;;;23.56;44.49
46211;BME280;52144;48.040;-1.594;2023-04-25T12:32:13;101156.56;;;23.37;44.18
46211;BME280;52144;48.040;-1.594;2023-04-25T12:34:41;101153.44;;;22.10;45.09
46211;BME280;52144;48.040;-1.594;2023-04-25T12:37:09;101149.41;;;22.04;46.62
46211;BME280;52144;48.040;-1.594;2023-04-25T12:39:37;101142.03;;;22.37;46.06
46211;BME280;52144;48.040;-1.594;2023-04-25T12:42:05;101133.22;;;23.15;44.00
46211;BME280;52144;48.040;-1.594;2023-04-25T12:44:36;101131.09;;;22.58;44.90
46211;BME280;52144;48.040;-1.594;2023-04-25T12:47:04;101135.66;;;23.08;42.74
46211;BME280;52144;48.040;-1.594;2023-04-25T12:49:33;101129.81;;;23.22;43.22
46211;BME280;52144;48.040;-1.594;2023-04-25T12:52:01;101139.38;;;22.57;42.76
46211;BME280;52144;48.040;-1.594;2023-04-25T12:54:28;101131.31;;;22.36;44.50